Time,TemperatureF,DewpointF,PressureIn,WindDirection,WindDirectionDegrees,WindSpeedMPH,WindSpeedGustMPH,Humidity,HourlyPrecipIn,Conditions,Clouds,dailyrainin,SoftwareType,DateUTC
2014-04-19 00:04:00,57.0,38.0,30.20,ESE,103,0.0,0.0,49,0.00,,,0.00,,2014-04-19 04:04:00,
2014-04-19 00:13:00,57.0,38.0,30.20,ESE,103,0.0,0.0,49,0.00,,,0.00,,2014-04-19 04:13:00,
2014-04-19 00:24:00,57.0,41.0,30.20,ESE,103,0.0,1.0,54,0.00,,,0.00,,2014-04-19 04:24:00,
2014-04-19 00:43:00,56.0,41.0,30.20,ESE,103,0.0,0.0,57,0.00,,,0.00,,2014-04-19 04:43:00,
2014-04-19 00:54:00,56.0,41.0,30.20,ESE,103,0.0,1.0,57,0.00,,,0.00,,2014-04-19 04:54:00,
2014-04-19 01:12:00,56.0,41.0,30.20,ESE,103,0.0,1.0,57,0.00,,,0.00,,2014-04-19 05:12:00,
2014-04-19 01:22:00,56.0,41.0,30.20,ESE,103,0.0,1.0,57,0.00,,,0.00,,2014-04-19 05:22:00,
2014-04-19 01:43:00,57.0,41.0,30.20,ESE,103,0.0,3.0,55,0.00,,,0.00,,2014-04-19 05:43:00,
2014-04-19 01:52:00,57.0,41.0,30.20,ESE,103,0.0,2.0,54,0.00,,,0.00,,2014-04-19 05:52:00,
2014-04-19 02:12:00,56.0,41.0,30.20,ESE,103,0.0,2.0,56,0.00,,,0.00,,2014-04-19 06:12:00,
2014-04-19 02:22:00,56.0,41.0,30.20,ESE,103,0.0,3.0,56,0.00,,,0.00,,2014-04-19 06:22:00,
2014-04-19 02:42:00,56.0,41.0,30.20,ESE,103,0.0,2.0,57,0.00,,,0.00,,2014-04-19 06:42:00,
2014-04-19 02:52:00,55.0,41.0,30.20,ESE,103,0.0,2.0,59,0.00,,,0.00,,2014-04-19 06:52:00,
2014-04-19 03:12:00,55.0,41.0,30.20,ESE,103,2.0,5.0,59,0.00,,,0.00,,2014-04-19 07:12:00,
2014-04-19 03:22:00,54.0,40.0,30.20,ESE,103,0.0,5.0,59,0.00,,,0.00,,2014-04-19 07:22:00,
2014-04-19 03:53:00,53.0,39.0,30.20,ESE,103,0.0,1.0,59,0.00,,,0.00,,2014-04-19 07:53:00,
2014-04-19 04:22:00,52.0,39.0,30.20,ESE,103,0.0,1.0,61,0.00,,,0.00,,2014-04-19 08:22:00,
2014-04-19 04:52:00,51.0,38.0,30.20,ESE,103,0.0,2.0,62,0.00,,,0.00,,2014-04-19 08:52:00,
2014-04-19 05:22:00,50.0,39.0,30.20,ESE,103,0.0,1.0,65,0.00,,,0.00,,2014-04-19 09:22:00,
2014-04-19 05:44:00,50.0,39.0,30.20,ESE,103,1.0,2.0,67,0.00,,,0.00,,2014-04-19 09:44:00,
2014-04-19 05:54:00,50.0,39.0,30.20,ESE,103,1.0,2.0,67,0.00,,,0.00,,2014-04-19 09:54:00,
2014-04-19 06:23:00,49.0,39.0,30.21,ESE,103,0.0,3.0,68,0.00,,,0.00,,2014-04-19 10:23:00,
2014-04-19 06:53:00,48.0,38.0,30.22,ESE,105,0.0,2.0,69,0.00,,,0.00,,2014-04-19 10:53:00,
2014-04-19 07:12:00,48.0,38.0,30.22,ESE,103,0.0,3.0,69,0.00,,,0.00,,2014-04-19 11:12:00,
2014-04-19 07:22:00,48.0,39.0,30.22,ESE,103,1.0,3.0,70,0.00,,,0.00,,2014-04-19 11:22:00,
2014-04-19 07:52:00,48.0,40.0,30.24,ESE,103,1.0,3.0,73,0.00,,,0.00,,2014-04-19 11:52:00,
2014-04-19 08:12:00,49.0,41.0,30.24,ESE,103,1.0,4.0,73,0.00,,,0.00,,2014-04-19 12:12:00,
2014-04-19 08:22:00,50.0,41.0,30.25,ESE,103,2.0,6.0,72,0.00,,,0.00,,2014-04-19 12:22:00,
2014-04-19 08:42:00,51.0,42.0,30.25,ESE,103,3.0,7.0,72,0.00,,,0.00,,2014-04-19 12:42:00,
2014-04-19 08:52:00,51.0,42.0,30.25,ESE,103,5.0,8.0,72,0.00,,,0.00,,2014-04-19 12:52:00,
2014-04-19 09:12:00,51.0,42.0,30.26,ESE,103,3.0,8.0,72,0.00,,,0.00,,2014-04-19 13:12:00,
2014-04-19 09:22:00,52.0,43.0,30.27,ESE,103,3.0,8.0,71,0.00,,,0.00,,2014-04-19 13:22:00,
2014-04-19 09:42:00,54.0,44.0,30.27,ESE,103,3.0,7.0,69,0.00,,,0.00,,2014-04-19 13:42:00,
2014-04-19 09:52:00,55.0,45.0,30.27,ESE,103,3.0,9.0,68,0.00,,,0.00,,2014-04-19 13:52:00,
2014-04-19 10:12:00,55.0,44.0,30.28,ESE,103,4.0,10.0,67,0.00,,,0.00,,2014-04-19 14:12:00,
2014-04-19 10:22:00,57.0,45.0,30.27,ESE,103,5.0,7.0,65,0.00,,,0.00,,2014-04-19 14:22:00,
2014-04-19 10:42:00,57.0,45.0,30.27,ESE,103,4.0,9.0,63,0.00,,,0.00,,2014-04-19 14:42:00,
2014-04-19 10:52:00,59.0,46.0,30.27,ESE,103,4.0,7.0,63,0.00,,,0.00,,2014-04-19 14:52:00,
2014-04-19 11:11:00,59.0,46.0,30.27,ESE,103,3.0,8.0,63,0.00,,,0.00,,2014-04-19 15:11:00,
2014-04-19 11:22:00,59.0,46.0,30.27,ESE,103,3.0,8.0,63,0.00,,,0.00,,2014-04-19 15:22:00,
2014-04-19 11:43:00,60.0,47.0,30.27,ESE,103,2.0,7.0,63,0.00,,,0.00,,2014-04-19 15:43:00,
2014-04-19 11:54:00,61.0,46.0,30.27,ESE,103,5.0,8.0,58,0.00,,,0.00,,2014-04-19 15:54:00,
2014-04-19 12:13:00,61.0,45.0,30.27,ESE,103,8.0,13.0,56,0.00,,,0.00,,2014-04-19 16:13:00,
2014-04-19 12:23:00,62.0,45.0,30.27,ESE,103,5.0,10.0,54,0.00,,,0.00,,2014-04-19 16:23:00,
2014-04-19 12:43:00,63.0,46.0,30.27,East,101,3.0,9.0,54,0.00,,,0.00,,2014-04-19 16:43:00,
2014-04-19 12:53:00,64.0,44.0,30.26,East,100,7.0,13.0,49,0.00,,,0.00,,2014-04-19 16:53:00,
2014-04-19 13:12:00,64.0,42.0,30.25,East,100,10.0,14.0,45,0.00,,,0.00,,2014-04-19 17:12:00,
2014-04-19 13:22:00,65.0,41.0,30.26,East,98,9.0,16.0,42,0.00,,,0.00,,2014-04-19 17:22:00,
2014-04-19 13:43:00,65.0,41.0,30.25,East,99,6.0,12.0,42,0.00,,,0.00,,2014-04-19 17:43:00,
2014-04-19 13:52:00,66.0,41.0,30.24,East,99,8.0,12.0,40,0.00,,,0.00,,2014-04-19 17:52:00,
2014-04-19 14:12:00,66.0,42.0,30.24,East,98,3.0,11.0,41,0.00,,,0.00,,2014-04-19 18:12:00,
2014-04-19 14:22:00,66.0,42.0,30.23,East,99,7.0,13.0,41,0.00,,,0.00,,2014-04-19 18:22:00,
2014-04-19 14:42:00,67.0,41.0,30.23,East,99,7.0,13.0,39,0.00,,,0.00,,2014-04-19 18:42:00,
2014-04-19 14:52:00,67.0,39.0,30.23,East,98,7.0,12.0,36,0.00,,,0.00,,2014-04-19 18:52:00,
2014-04-19 15:12:00,67.0,40.0,30.23,East,99,5.0,11.0,37,0.00,,,0.00,,2014-04-19 19:12:00,
2014-04-19 15:22:00,66.0,40.0,30.22,East,97,5.0,12.0,38,0.00,,,0.00,,2014-04-19 19:22:00,
2014-04-19 15:42:00,67.0,39.0,30.21,East,99,7.0,13.0,36,0.00,,,0.00,,2014-04-19 19:42:00,
2014-04-19 15:52:00,67.0,41.0,30.21,East,97,4.0,11.0,38,0.00,,,0.00,,2014-04-19 19:52:00,
2014-04-19 16:12:00,67.0,39.0,30.20,East,98,9.0,13.0,36,0.00,,,0.00,,2014-04-19 20:12:00,
2014-04-19 16:22:00,67.0,38.0,30.20,East,99,9.0,15.0,35,0.00,,,0.00,,2014-04-19 20:22:00,
2014-04-19 16:42:00,68.0,40.0,30.19,East,99,5.0,9.0,36,0.00,,,0.00,,2014-04-19 20:42:00,
2014-04-19 16:52:00,68.0,40.0,30.19,East,99,5.0,9.0,36,0.00,,,0.00,,2014-04-19 20:52:00,
2014-04-19 17:12:00,68.0,39.0,30.19,East,98,8.0,14.0,34,0.00,,,0.00,,2014-04-19 21:12:00,
2014-04-19 17:22:00,68.0,39.0,30.19,East,99,4.0,10.0,35,0.00,,,0.00,,2014-04-19 21:22:00,
2014-04-19 17:43:00,68.0,39.0,30.20,East,98,5.0,11.0,34,0.00,,,0.00,,2014-04-19 21:43:00,
2014-04-19 17:54:00,68.0,37.0,30.20,East,99,6.0,12.0,32,0.00,,,0.00,,2014-04-19 21:54:00,
2014-04-19 18:13:00,68.0,37.0,30.20,East,97,7.0,10.0,32,0.00,,,0.00,,2014-04-19 22:13:00,
2014-04-19 18:23:00,67.0,38.0,30.20,East,97,6.0,14.0,35,0.00,,,0.00,,2014-04-19 22:23:00,
2014-04-19 18:43:00,67.0,35.0,30.19,East,98,6.0,11.0,31,0.00,,,0.00,,2014-04-19 22:43:00,
2014-04-19 18:53:00,67.0,35.0,30.19,East,97,5.0,9.0,31,0.00,,,0.00,,2014-04-19 22:53:00,
2014-04-19 19:12:00,67.0,36.0,30.19,East,98,5.0,9.0,32,0.00,,,0.00,,2014-04-19 23:12:00,
2014-04-19 19:22:00,66.0,35.0,30.19,East,97,3.0,10.0,32,0.00,,,0.00,,2014-04-19 23:22:00,